Time;durP1;ratioP1;P1;durP2;ratioP2;P2;SDS_P1;SDS_P2;PMS_P1;PMS_P2;Temp;Humidity;BMP_temperature;BMP_pressure;BME280_temperature;BME280_humidity;BME280_pressure;Samples;Min_cycle;Max_cycle;Signal;HPM_P1;HPM_P2
2023/12/11 00:01:09;;;;;;;8.67;4.30;;;6.80;1.00;;;;;;5072938;28;20181;-64
2023/12/11 00:03:34;;;;;;;11.83;4.60;;;6.80;1.00;;;;;;5070971;28;20189;-66
2023/12/11 00:06:00;;;;;;;10.30;4.23;;;6.80;1.00;;;;;;5071345;28;20531;-65
2023/12/11 00:08:26;;;;;;;6.93;4.30;;;6.80;1.00;;;;;;5059858;28;20559;-64
2023/12/11 00:10:51;;;;;;;15.03;3.97;;;6.80;1.00;;;;;;5058872;28;20197;-64
2023/12/11 00:13:17;;;;;;;3.63;3.37;;;6.90;1.00;;;;;;5073093;28;20636;-64
2023/12/11 00:15:43;;;;;;;7.13;4.13;;;6.90;1.00;;;;;;5068941;28;20182;-63
2023/12/11 00:18:09;;;;;;;7.17;3.90;;;6.90;1.00;;;;;;5048252;28;20674;-67
2023/12/11 00:20:34;;;;;;;12.03;4.40;;;6.90;1.00;;;;;;5053027;28;20175;-64
2023/12/11 00:23:00;;;;;;;4.57;3.67;;;6.90;1.00;;;;;;5052936;28;20395;-63
2023/12/11 00:25:29;;;;;;;6.07;3.60;;;6.90;1.00;;;;;;5051886;28;20193;-64
2023/12/11 00:27:55;;;;;;;8.23;4.13;;;6.90;1.00;;;;;;5052783;28;20882;-65
2023/12/11 00:30:20;;;;;;;13.90;5.03;;;6.90;1.00;;;;;;5052677;28;20493;-64
2023/12/11 00:32:46;;;;;;;5.33;4.30;;;6.80;1.00;;;;;;5051577;28;20205;-64
2023/12/11 00:35:14;;;;;;;6.00;4.53;;;6.90;1.00;;;;;;5059506;28;20177;-65
2023/12/11 00:37:40;;;;;;;7.80;4.27;;;6.90;1.00;;;;;;5066728;28;20263;-67
2023/12/11 00:40:07;;;;;;;9.07;4.37;;;6.80;1.00;;;;;;5072811;28;20396;-63
2023/12/11 00:42:32;;;;;;;10.23;4.83;;;6.80;1.00;;;;;;5057753;28;20429;-63
2023/12/11 00:44:58;;;;;;;7.60;5.27;;;6.90;1.00;;;;;;5051471;28;20464;-64
2023/12/11 00:47:24;;;;;;;7.90;5.50;;;6.90;1.00;;;;;;5052738;28;20197;-67
2023/12/11 00:49:49;;;;;;;14.53;5.67;;;6.90;1.00;;;;;;5052484;28;20684;-63
2023/12/11 00:52:15;;;;;;;12.17;6.00;;;6.90;1.00;;;;;;5051391;28;20201;-67
2023/12/11 00:54:41;;;;;;;8.17;5.90;;;6.90;1.00;;;;;;5051781;28;20497;-64
2023/12/11 00:57:06;;;;;;;11.90;6.60;;;6.90;1.00;;;;;;5052304;28;20652;-64
2023/12/11 00:59:32;;;;;;;11.33;5.50;;;6.80;1.00;;;;;;5052615;28;20180;-67
2023/12/11 01:01:58;;;;;;;8.67;6.50;;;6.80;1.00;;;;;;5052390;28;20199;-65
2023/12/11 01:04:24;;;;;;;11.90;6.93;;;6.90;1.00;;;;;;5051193;28;20214;-65
2023/12/11 01:06:50;;;;;;;9.93;6.47;;;6.90;1.00;;;;;;5050588;28;20560;-65
2023/12/11 01:09:16;;;;;;;14.57;6.83;;;6.90;1.00;;;;;;5052678;28;20169;-65
2023/12/11 01:11:41;;;;;;;7.10;6.40;;;6.90;1.00;;;;;;5056265;28;20909;-64
2023/12/11 01:14:07;;;;;;;8.60;6.80;;;6.90;1.00;;;;;;5056670;28;20169;-64
2023/12/11 01:16:33;;;;;;;12.33;6.37;;;6.90;1.00;;;;;;5053205;28;20179;-64
2023/12/11 01:18:59;;;;;;;15.00;6.80;;;6.90;1.00;;;;;;5056439;28;20178;-65
2023/12/11 01:21:24;;;;;;;9.20;7.17;;;6.90;1.00;;;;;;5056347;28;20907;-63
2023/12/11 01:23:50;;;;;;;10.97;7.17;;;7.00;1.00;;;;;;5055023;28;20180;-64
2023/12/11 01:26:16;;;;;;;19.27;7.50;;;7.00;1.00;;;;;;5055449;28;20320;-64
2023/12/11 01:28:41;;;;;;;11.60;7.10;;;7.00;1.00;;;;;;5056248;28;20196;-65
2023/12/11 01:31:07;;;;;;;10.60;6.67;;;7.00;1.00;;;;;;5054494;28;20551;-64
2023/12/11 01:33:33;;;;;;;8.90;6.43;;;7.00;1.00;;;;;;5056252;28;20170;-64
2023/12/11 01:35:58;;;;;;;11.53;7.23;;;7.00;1.00;;;;;;5053970;28;20166;-63
2023/12/11 01:38:24;;;;;;;8.33;7.10;;;7.00;1.00;;;;;;5075419;28;20259;-63
2023/12/11 01:40:50;;;;;;;9.27;6.60;;;7.00;1.00;;;;;;5075424;28;20168;-65
2023/12/11 01:43:18;;;;;;;14.83;7.00;;;6.90;1.00;;;;;;5075834;28;20170;-64
2023/12/11 01:46:06;;;;;;;15.10;6.67;;;6.90;1.00;;;;;;5074977;28;20171;-64
2023/12/11 01:48:32;;;;;;;8.63;6.90;;;7.00;1.00;;;;;;5073752;28;20781;-64
2023/12/11 01:50:58;;;;;;;11.50;6.53;;;7.00;1.00;;;;;;5075696;28;20444;-66
2023/12/11 01:53:26;;;;;;;10.27;7.80;;;7.00;1.00;;;;;;5074516;28;20402;-67
2023/12/11 01:55:52;;;;;;;12.10;6.10;;;7.00;1.00;;;;;;5074972;28;20398;-65
2023/12/11 01:58:19;;;;;;;8.70;6.37;;;6.90;1.00;;;;;;5068060;28;20501;-64
2023/12/11 02:00:45;;;;;;;14.03;6.60;;;6.90;1.00;;;;;;5075674;28;20887;-65
2023/12/11 02:03:10;;;;;;;10.83;6.43;;;6.90;1.00;;;;;;5073395;28;20401;-64
2023/12/11 02:05:37;;;;;;;10.33;6.03;;;6.90;1.00;;;;;;5073288;28;20416;-65
2023/12/11 02:08:03;;;;;;;10.13;6.50;;;6.90;1.00;;;;;;5075545;28;20551;-64
2023/12/11 02:10:28;;;;;;;8.87;6.13;;;6.90;1.00;;;;;;5074274;28;20742;-64
2023/12/11 02:12:54;;;;;;;8.63;5.80;;;6.90;1.00;;;;;;5073659;28;20576;-67
2023/12/11 02:15:39;;;;;;;10.90;6.03;;;6.90;1.00;;;;;;5074145;28;20159;-64
2023/12/11 02:18:06;;;;;;;9.10;6.23;;;6.90;1.00;;;;;;5063643;28;20198;-63
2023/12/11 02:20:32;;;;;;;11.07;6.23;;;6.90;1.00;;;;;;5035449;28;20891;-64
2023/12/11 02:23:06;;;;;;;9.80;5.53;;;6.90;1.00;;;;;;5034418;28;20377;-67
2023/12/11 02:25:35;;;;;;;7.37;5.80;;;6.90;1.00;;;;;;5049551;28;20182;-66
2023/12/11 02:28:02;;;;;;;13.50;6.70;;;6.90;1.00;;;;;;5075158;28;20418;-63
2023/12/11 02:30:32;;;;;;;9.87;6.40;;;6.90;1.00;;;;;;5074838;28;20906;-64
2023/12/11 02:32:57;;;;;;;11.50;9.23;;;6.90;1.00;;;;;;5065505;28;20440;-65
2023/12/11 02:35:23;;;;;;;12.70;6.57;;;6.90;1.00;;;;;;5052943;28;20464;-63
2023/12/11 02:37:49;;;;;;;9.87;6.13;;;6.90;1.00;;;;;;5054935;28;20266;-65
2023/12/11 02:40:14;;;;;;;8.63;5.60;;;6.90;1.00;;;;;;5053849;28;20173;-67
2023/12/11 02:42:47;;;;;;;9.97;5.50;;;6.90;1.00;;;;;;5054890;28;20168;-65
2023/12/11 02:45:13;;;;;;;8.20;5.03;;;6.90;1.00;;;;;;5053663;28;20210;-67
2023/12/11 02:47:38;;;;;;;9.93;5.63;;;6.90;1.00;;;;;;5054277;28;20425;-65
2023/12/11 02:50:05;;;;;;;6.47;5.87;;;6.90;1.00;;;;;;5054508;28;20887;-64
2023/12/11 02:52:30;;;;;;;6.23;5.60;;;6.90;1.00;;;;;;5054172;28;20187;-65
2023/12/11 02:54:56;;;;;;;9.80;6.03;;;6.90;1.00;;;;;;5072566;28;20807;-66
2023/12/11 02:57:22;;;;;;;7.37;5.17;;;6.90;1.00;;;;;;5073596;28;20199;-64
2023/12/11 02:59:48;;;;;;;7.90;5.27;;;6.90;1.00;;;;;;5073144;28;20204;-65
2023/12/11 03:02:13;;;;;;;10.87;5.70;;;6.90;1.00;;;;;;5054036;28;20193;-67
2023/12/11 03:04:39;;;;;;;6.23;4.93;;;6.90;1.00;;;;;;5053534;28;20177;-64
2023/12/11 03:07:05;;;;;;;9.17;6.60;;;7.00;1.00;;;;;;5054019;28;20274;-64
2023/12/11 03:09:30;;;;;;;5.40;4.93;;;7.00;1.00;;;;;;5053916;28;20157;-64
2023/12/11 03:11:56;;;;;;;6.63;5.23;;;7.00;1.00;;;;;;5054465;28;20295;-64
2023/12/11 03:14:22;;;;;;;5.43;4.93;;;6.90;1.00;;;;;;5052925;28;20694;-64
2023/12/11 03:16:48;;;;;;;6.03;5.37;;;6.90;1.00;;;;;;5060256;28;20543;-65
2023/12/11 03:19:15;;;;;;;5.80;5.23;;;6.90;1.00;;;;;;5074127;28;20219;-64
2023/12/11 03:21:41;;;;;;;8.73;4.73;;;6.90;1.00;;;;;;5073983;28;20375;-66
2023/12/11 03:24:07;;;;;;;5.23;4.73;;;6.90;1.00;;;;;;5073863;28;20431;-64
2023/12/11 03:26:32;;;;;;;5.03;4.53;;;6.90;1.00;;;;;;5071793;28;20698;-64
2023/12/11 03:28:58;;;;;;;11.13;5.20;;;6.90;1.00;;;;;;5073898;28;20196;-64
2023/12/11 03:31:24;;;;;;;8.03;5.33;;;6.90;1.00;;;;;;5074011;28;20285;-64
2023/12/11 03:33:49;;;;;;;5.87;5.03;;;6.90;1.00;;;;;;5072620;28;20173;-65
2023/12/11 03:36:15;;;;;;;9.27;5.50;;;6.90;1.00;;;;;;5061561;28;20244;-67
2023/12/11 03:38:41;;;;;;;6.20;5.53;;;6.90;1.00;;;;;;5053719;28;20194;-64
2023/12/11 03:41:07;;;;;;;7.93;5.50;;;6.90;1.00;;;;;;5053816;28;20167;-66
2023/12/11 03:43:32;;;;;;;6.00;5.40;;;6.90;1.00;;;;;;5058478;28;20646;-67
2023/12/11 03:45:59;;;;;;;5.87;5.27;;;6.90;1.00;;;;;;5072794;28;20416;-64
2023/12/11 03:48:25;;;;;;;7.83;5.20;;;6.80;1.00;;;;;;5073440;28;20193;-64
2023/12/11 03:50:51;;;;;;;8.53;5.30;;;6.90;1.00;;;;;;5073535;28;20503;-67
2023/12/11 03:53:17;;;;;;;8.03;5.23;;;6.80;1.00;;;;;;5073379;28;20201;-64
2023/12/11 03:55:43;;;;;;;8.20;5.57;;;6.80;1.00;;;;;;5072584;28;20439;-66
2023/12/11 03:58:08;;;;;;;9.07;5.80;;;6.80;1.00;;;;;;5053517;28;20200;-63
2023/12/11 04:00:34;;;;;;;5.73;5.23;;;6.80;1.00;;;;;;5053949;28;20174;-64
2023/12/11 04:03:00;;;;;;;7.27;6.03;;;6.80;1.00;;;;;;5073604;28;20496;-63
2023/12/11 04:05:26;;;;;;;8.70;6.43;;;6.90;1.00;;;;;;5070422;28;20440;-64
2023/12/11 04:07:52;;;;;;;6.23;5.47;;;6.90;1.00;;;;;;5073083;28;20197;-63
2023/12/11 04:10:17;;;;;;;6.13;5.60;;;6.80;1.00;;;;;;5073250;28;20174;-64
2023/12/11 04:12:43;;;;;;;11.43;5.53;;;6.80;1.00;;;;;;5062210;28;20289;-65
2023/12/11 04:15:10;;;;;;;9.60;6.00;;;6.80;1.00;;;;;;5032455;28;20253;-63
2023/12/11 04:17:36;;;;;;;11.00;6.07;;;6.80;1.00;;;;;;5032910;28;20180;-64
2023/12/11 04:20:03;;;;;;;6.77;4.97;;;6.80;1.00;;;;;;5032774;28;20404;-64
2023/12/11 04:22:29;;;;;;;6.50;5.67;;;6.80;1.00;;;;;;5033048;28;20410;-64
2023/12/11 04:24:54;;;;;;;5.07;4.57;;;6.80;1.00;;;;;;5032228;28;20435;-66
2023/12/11 04:27:20;;;;;;;6.57;5.47;;;6.80;1.00;;;;;;5033123;28;20549;-63
2023/12/11 04:29:46;;;;;;;7.60;6.07;;;6.80;1.00;;;;;;5033239;28;20517;-64
2023/12/11 04:32:12;;;;;;;5.13;4.73;;;6.80;1.00;;;;;;5069239;28;20203;-64
2023/12/11 04:34:37;;;;;;;6.10;5.00;;;6.80;1.00;;;;;;5071828;28;20480;-64
2023/12/11 04:37:03;;;;;;;6.47;5.70;;;6.80;1.00;;;;;;5072487;28;20194;-65
2023/12/11 04:39:29;;;;;;;6.43;5.70;;;6.80;1.00;;;;;;5072994;28;20181;-63
2023/12/11 04:41:55;;;;;;;6.20;5.57;;;6.90;1.00;;;;;;5072839;28;20225;-65
2023/12/11 04:44:20;;;;;;;8.90;5.70;;;6.80;1.00;;;;;;5072361;28;20180;-63
2023/12/11 04:46:46;;;;;;;6.13;5.57;;;6.90;1.00;;;;;;5070936;28;20637;-64
2023/12/11 04:49:12;;;;;;;6.10;5.50;;;6.90;1.00;;;;;;5070616;28;20188;-63
2023/12/11 04:51:37;;;;;;;6.17;5.63;;;6.90;1.00;;;;;;5071452;28;20205;-64
2023/12/11 04:54:03;;;;;;;5.43;4.93;;;6.80;1.00;;;;;;5061060;28;20225;-64
2023/12/11 04:56:29;;;;;;;8.77;6.93;;;6.80;1.00;;;;;;5050153;28;20171;-63
2023/12/11 04:58:55;;;;;;;9.07;6.20;;;6.80;1.00;;;;;;5052542;28;20222;-66
2023/12/11 05:01:21;;;;;;;8.30;6.17;;;6.80;1.00;;;;;;5052697;28;20175;-63
2023/12/11 05:03:47;;;;;;;7.90;6.70;;;6.80;1.00;;;;;;5052482;28;20203;-64
2023/12/11 05:06:13;;;;;;;7.07;5.37;;;6.80;1.00;;;;;;5051898;28;20758;-66
2023/12/11 05:08:38;;;;;;;6.13;5.53;;;6.80;1.00;;;;;;5052625;28;20195;-64
2023/12/11 05:11:04;;;;;;;7.07;6.37;;;6.80;1.00;;;;;;5052241;28;20678;-64
2023/12/11 05:13:30;;;;;;;8.00;6.30;;;6.80;1.00;;;;;;5052211;28;20681;-65
2023/12/11 05:15:56;;;;;;;9.60;6.33;;;6.80;1.00;;;;;;5059865;28;20185;-65
2023/12/11 05:18:21;;;;;;;6.93;5.47;;;6.80;1.00;;;;;;5072253;28;20198;-64
2023/12/11 05:20:47;;;;;;;9.03;5.27;;;6.80;1.00;;;;;;5072837;28;20672;-64
2023/12/11 05:23:13;;;;;;;6.33;5.73;;;6.80;1.00;;;;;;5072436;28;20184;-64
2023/12/11 05:25:38;;;;;;;11.83;6.50;;;6.90;1.00;;;;;;5071652;28;20184;-64
2023/12/11 05:28:04;;;;;;;8.67;5.90;;;6.90;1.00;;;;;;5069651;28;20195;-64
2023/12/11 05:30:31;;;;;;;6.67;5.57;;;6.90;1.00;;;;;;5069780;28;20629;-64
2023/12/11 05:32:56;;;;;;;10.20;6.33;;;6.90;1.00;;;;;;5072021;28;20622;-66
2023/12/11 05:35:22;;;;;;;7.70;5.73;;;6.90;1.00;;;;;;5070158;28;20457;-66
2023/12/11 05:37:48;;;;;;;8.80;7.40;;;6.90;1.00;;;;;;5072375;28;20193;-64
2023/12/11 05:40:13;;;;;;;19.50;8.30;;;7.00;1.00;;;;;;5072462;28;20577;-64
2023/12/11 05:42:39;;;;;;;6.63;5.93;;;7.00;1.00;;;;;;5054360;28;20179;-66
2023/12/11 05:45:05;;;;;;;11.10;7.30;;;7.00;1.00;;;;;;5051262;28;20638;-64
2023/12/11 05:47:31;;;;;;;15.07;6.80;;;6.90;1.00;;;;;;5051991;28;20274;-67
2023/12/11 05:49:57;;;;;;;8.10;7.30;;;6.90;1.00;;;;;;5052860;28;20524;-63
2023/12/11 05:52:22;;;;;;;9.87;7.20;;;6.90;1.00;;;;;;5072065;28;20233;-64
2023/12/11 05:54:48;;;;;;;15.00;7.70;;;6.90;1.00;;;;;;5071273;28;20163;-63
2023/12/11 05:57:14;;;;;;;9.77;6.10;;;6.90;1.00;;;;;;5062844;28;20198;-63
2023/12/11 05:59:39;;;;;;;13.00;7.60;;;6.90;1.00;;;;;;5074510;28;20383;-65
2023/12/11 06:02:05;;;;;;;9.77;7.17;;;6.90;1.00;;;;;;5057334;28;20536;-65
2023/12/11 06:04:32;;;;;;;18.50;8.90;;;6.90;1.00;;;;;;5050370;28;20175;-77
2023/12/11 06:06:58;;;;;;;16.53;9.07;;;6.90;1.00;;;;;;5068702;28;20199;-64
2023/12/11 06:09:24;;;;;;;19.00;8.83;;;6.90;1.00;;;;;;5075773;28;20483;-65
2023/12/11 06:11:49;;;;;;;10.13;6.47;;;6.90;1.00;;;;;;5056923;28;20205;-64
2023/12/11 06:14:15;;;;;;;12.50;8.93;;;6.90;1.00;;;;;;5054150;28;20175;-68
2023/12/11 06:16:41;;;;;;;18.67;9.80;;;7.00;1.00;;;;;;5051328;28;20622;-67
2023/12/11 06:19:07;;;;;;;12.77;8.50;;;7.00;1.00;;;;;;5054047;28;20465;-64
2023/12/11 06:21:32;;;;;;;13.53;8.87;;;7.00;1.00;;;;;;5061798;28;20207;-64
2023/12/11 06:23:58;;;;;;;11.50;8.30;;;7.00;1.00;;;;;;5069727;28;20194;-65
2023/12/11 06:26:36;;;;;;;20.03;12.20;;;7.00;1.00;;;;;;5074130;28;20194;-63
2023/12/11 06:29:02;;;;;;;18.97;9.70;;;7.00;1.00;;;;;;5075089;28;20186;-67
2023/12/11 06:31:29;;;;;;;26.13;9.60;;;7.00;1.00;;;;;;5069417;28;20960;-63
2023/12/11 06:33:56;;;;;;;12.80;8.27;;;7.00;1.00;;;;;;5055045;28;20171;-65
2023/12/11 06:36:23;;;;;;;21.93;8.93;;;7.00;1.00;;;;;;5053281;28;20483;-64
2023/12/11 06:38:52;;;;;;;14.77;8.87;;;7.00;1.00;;;;;;5054667;28;20418;-68
2023/12/11 06:41:18;;;;;;;17.97;9.50;;;7.00;1.00;;;;;;5054093;28;20492;-64
2023/12/11 06:43:49;;;;;;;9.47;7.27;;;7.00;1.00;;;;;;5053396;28;20415;-65
2023/12/11 06:46:15;;;;;;;12.97;9.23;;;6.90;1.00;;;;;;5051916;28;20433;-67
2023/12/11 06:48:41;;;;;;;10.57;7.40;;;6.90;1.00;;;;;;5052690;28;20510;-65
2023/12/11 06:51:07;;;;;;;13.00;7.57;;;6.90;1.00;;;;;;5052776;28;20906;-63
2023/12/11 06:53:32;;;;;;;12.83;7.57;;;6.90;1.00;;;;;;5068784;28;20777;-66
2023/12/11 06:55:58;;;;;;;9.37;7.40;;;7.00;1.00;;;;;;5072080;28;20500;-64
2023/12/11 06:58:24;;;;;;;10.20;7.47;;;7.00;1.00;;;;;;5072077;28;20249;-66
2023/12/11 07:00:50;;;;;;;10.87;8.13;;;7.00;1.00;;;;;;5074173;28;20227;-64
2023/12/11 07:03:17;;;;;;;13.67;9.63;;;7.00;1.00;;;;;;5064256;28;20571;-64
2023/12/11 07:05:43;;;;;;;9.37;8.07;;;7.00;1.00;;;;;;5053962;28;20407;-64
2023/12/11 07:08:10;;;;;;;12.63;8.10;;;7.00;1.00;;;;;;5054025;28;20441;-64
2023/12/11 07:10:36;;;;;;;11.07;7.80;;;7.00;1.00;;;;;;5054141;28;20413;-64
2023/12/11 07:13:02;;;;;;;10.87;8.50;;;7.00;1.00;;;;;;5053880;28;20949;-63
2023/12/11 07:15:28;;;;;;;18.87;11.27;;;7.00;1.00;;;;;;5053296;28;20304;-66
2023/12/11 07:17:55;;;;;;;20.17;11.23;;;7.00;1.00;;;;;;5054002;28;20509;-65
2023/12/11 07:20:21;;;;;;;23.80;11.17;;;7.10;1.00;;;;;;5052856;28;20418;-64
2023/12/11 07:22:47;;;;;;;23.60;12.07;;;7.10;1.00;;;;;;5054396;28;20386;-64
2023/12/11 07:25:15;;;;;;;29.73;10.87;;;7.10;1.00;;;;;;5053186;28;20218;-63
2023/12/11 07:27:44;;;;;;;16.93;10.43;;;7.10;1.00;;;;;;5052728;28;20858;-64
2023/12/11 07:30:11;;;;;;;12.90;10.20;;;7.00;1.00;;;;;;5052436;28;20422;-64
2023/12/11 07:32:37;;;;;;;15.93;10.13;;;7.10;1.00;;;;;;5053472;28;20486;-64
2023/12/11 07:35:03;;;;;;;21.17;10.17;;;7.10;1.00;;;;;;5053268;28;20887;-63
2023/12/11 07:37:29;;;;;;;20.87;11.03;;;7.10;1.00;;;;;;5052348;28;20431;-67
2023/12/11 07:39:55;;;;;;;13.80;10.30;;;7.20;1.00;;;;;;5052107;28;20384;-64
2023/12/11 07:42:22;;;;;;;18.93;11.10;;;7.20;1.00;;;;;;5053681;28;20407;-64
2023/12/11 07:44:48;;;;;;;23.37;11.67;;;7.20;1.00;;;;;;5053174;28;20175;-64
2023/12/11 07:47:13;;;;;;;23.33;10.90;;;7.20;1.00;;;;;;5053282;28;20517;-66
2023/12/11 07:49:39;;;;;;;18.53;11.50;;;7.20;1.00;;;;;;5052020;28;20224;-65
2023/12/11 07:52:05;;;;;;;17.40;10.40;;;7.30;1.00;;;;;;5053298;28;20201;-64
2023/12/11 07:54:31;;;;;;;26.40;11.77;;;7.30;1.00;;;;;;5053009;28;20918;-65
2023/12/11 07:56:56;;;;;;;28.23;11.57;;;7.30;1.00;;;;;;5053302;28;20237;-65
2023/12/11 07:59:22;;;;;;;27.40;12.23;;;7.30;1.00;;;;;;5053434;28;20265;-63
2023/12/11 08:01:49;;;;;;;23.83;11.53;;;7.40;1.00;;;;;;5053325;28;20623;-64
2023/12/11 08:04:14;;;;;;;22.40;12.00;;;7.40;1.00;;;;;;5053282;28;20200;-63
2023/12/11 08:06:43;;;;;;;26.43;12.90;;;7.40;1.00;;;;;;5051145;28;20421;-64
2023/12/11 08:09:09;;;;;;;32.83;13.37;;;7.40;1.00;;;;;;5045306;28;20410;-64
2023/12/11 08:11:35;;;;;;;27.67;12.57;;;7.40;1.00;;;;;;5031697;28;20475;-67
2023/12/11 08:14:01;;;;;;;24.80;12.47;;;7.40;1.00;;;;;;5032301;28;20443;-64
2023/12/11 08:16:27;;;;;;;25.90;12.30;;;7.50;1.00;;;;;;5032435;28;20936;-64
2023/12/11 08:18:52;;;;;;;21.70;12.53;;;7.50;1.00;;;;;;5033082;28;20199;-65
2023/12/11 08:21:19;;;;;;;21.60;11.47;;;7.50;1.00;;;;;;5056392;28;20180;-64
2023/12/11 08:23:47;;;;;;;23.47;12.37;;;7.60;1.00;;;;;;5062950;28;20411;-68
2023/12/11 08:26:19;;;;;;;27.77;13.83;;;7.60;1.00;;;;;;5070643;28;20392;-65
2023/12/11 08:28:46;;;;;;;27.13;12.47;;;7.60;1.00;;;;;;5072980;28;20472;-63
2023/12/11 08:31:12;;;;;;;20.07;12.43;;;7.60;1.00;;;;;;5072923;28;20450;-64
2023/12/11 08:33:37;;;;;;;22.53;11.30;;;7.60;1.00;;;;;;5060470;28;20407;-63
2023/12/11 08:36:04;;;;;;;20.03;11.50;;;7.60;1.00;;;;;;5053947;28;20460;-67
2023/12/11 08:38:30;;;;;;;30.00;12.50;;;7.60;1.00;;;;;;5071531;28;20593;-63
2023/12/11 08:40:57;;;;;;;27.20;13.37;;;7.70;1.00;;;;;;5060467;28;20432;-68
2023/12/11 08:43:23;;;;;;;20.23;11.93;;;7.70;1.00;;;;;;5051495;28;20428;-64
2023/12/11 08:45:49;;;;;;;24.40;12.67;;;7.70;1.00;;;;;;5063439;28;20762;-63
2023/12/11 08:48:15;;;;;;;23.70;13.27;;;7.70;1.00;;;;;;5070533;28;20658;-66
2023/12/11 08:50:41;;;;;;;22.43;11.80;;;7.80;1.00;;;;;;5063320;28;20934;-64
2023/12/11 08:53:07;;;;;;;29.30;12.90;;;7.80;1.00;;;;;;5055139;28;20461;-64
2023/12/11 08:55:33;;;;;;;30.03;12.87;;;7.80;1.00;;;;;;5068066;28;20809;-63
2023/12/11 08:57:59;;;;;;;31.23;12.60;;;7.90;1.00;;;;;;5052086;28;20464;-65
2023/12/11 09:00:25;;;;;;;30.20;12.60;;;7.90;1.00;;;;;;5066217;28;20187;-63
2023/12/11 09:02:53;;;;;;;19.80;10.80;;;7.90;1.00;;;;;;5072324;28;20223;-63
2023/12/11 09:05:19;;;;;;;28.93;12.23;;;7.90;1.00;;;;;;5069602;28;20917;-65
2023/12/11 09:07:45;;;;;;;29.07;12.60;;;7.90;1.00;;;;;;5061468;28;20452;-63
2023/12/11 09:10:11;;;;;;;20.60;10.70;;;7.90;1.00;;;;;;5050701;28;20545;-65
2023/12/11 09:12:37;;;;;;;28.53;9.87;;;8.00;1.00;;;;;;5056770;28;20207;-64
2023/12/11 09:15:04;;;;;;;24.20;10.90;;;8.10;1.00;;;;;;5050704;28;20415;-63
2023/12/11 09:17:29;;;;;;;30.37;10.90;;;8.10;1.00;;;;;;5052843;28;20761;-63
2023/12/11 09:19:55;;;;;;;19.83;11.53;;;8.20;1.00;;;;;;5055892;28;20436;-63
2023/12/11 09:22:21;;;;;;;26.60;12.73;;;8.20;1.00;;;;;;5068473;28;20229;-64
2023/12/11 09:24:46;;;;;;;26.60;12.40;;;8.20;1.00;;;;;;5059406;28;20655;-64
2023/12/11 09:27:12;;;;;;;23.67;10.80;;;8.30;1.00;;;;;;5051814;28;20201;-67
2023/12/11 09:29:38;;;;;;;21.77;11.00;;;8.30;1.00;;;;;;5072843;28;20178;-63
2023/12/11 09:32:04;;;;;;;29.10;12.60;;;8.30;1.00;;;;;;5068695;28;20199;-64
2023/12/11 09:34:30;;;;;;;20.27;12.33;;;8.40;1.00;;;;;;5055844;28;20178;-72
2023/12/11 09:36:57;;;;;;;24.80;10.30;;;8.30;1.00;;;;;;5070418;28;20422;-63
2023/12/11 09:39:23;;;;;;;23.47;11.27;;;8.40;1.00;;;;;;5076117;28;20169;-66
2023/12/11 09:41:49;;;;;;;29.13;12.37;;;8.40;1.00;;;;;;5056688;28;20414;-64
2023/12/11 09:44:16;;;;;;;26.30;11.30;;;8.40;1.00;;;;;;5056184;28;20179;-63
2023/12/11 09:46:54;;;;;;;21.70;10.70;;;8.40;1.00;;;;;;5055484;28;20873;-64
2023/12/11 09:49:21;;;;;;;28.50;9.20;;;8.40;1.00;;;;;;5065656;28;20424;-71
2023/12/11 09:51:46;;;;;;;20.90;9.40;;;8.40;1.00;;;;;;5072547;28;20796;-63
2023/12/11 09:54:12;;;;;;;16.63;9.80;;;8.40;1.00;;;;;;5058347;28;20407;-64
2023/12/11 09:56:39;;;;;;;21.80;8.83;;;8.40;1.00;;;;;;5055123;28;20178;-64
2023/12/11 09:59:08;;;;;;;14.10;8.20;;;8.40;1.00;;;;;;5054086;28;20183;-67
2023/12/11 10:01:34;;;;;;;17.80;9.67;;;8.40;1.00;;;;;;5062514;28;20401;-64
2023/12/11 10:04:00;;;;;;;19.47;9.20;;;8.50;1.00;;;;;;5071808;28;20399;-63
2023/12/11 10:06:26;;;;;;;16.60;9.53;;;8.40;1.00;;;;;;5060370;28;20435;-63
2023/12/11 10:08:53;;;;;;;23.00;10.00;;;8.50;1.00;;;;;;5075707;28;20542;-65
2023/12/11 10:11:22;;;;;;;19.30;8.60;;;8.50;1.00;;;;;;5073061;28;20573;-64
2023/12/11 10:13:48;;;;;;;17.47;8.73;;;8.40;1.00;;;;;;5067824;28;20434;-65
2023/12/11 10:16:35;;;;;;;18.60;9.20;;;8.50;1.00;;;;;;5071534;28;20443;-65
2023/12/11 10:19:02;;;;;;;17.50;8.37;;;8.50;1.00;;;;;;5074060;28;20423;-63
2023/12/11 10:21:37;;;;;;;21.83;9.13;;;8.40;1.00;;;;;;5069718;28;20437;-63
2023/12/11 10:24:14;;;;;;;15.60;8.30;;;8.40;1.00;;;;;;5055634;28;20519;-64
2023/12/11 10:26:46;;;;;;;16.30;8.80;;;8.30;1.00;;;;;;5070320;28;20430;-66
2023/12/11 10:29:23;;;;;;;22.07;9.23;;;8.30;1.00;;;;;;5073268;28;20927;-66
2023/12/11 10:31:50;;;;;;;15.00;9.80;;;8.30;1.00;;;;;;5059900;28;21002;-63
2023/12/11 10:34:16;;;;;;;17.17;9.10;;;8.30;1.00;;;;;;5055057;28;20463;-64
2023/12/11 10:36:50;;;;;;;18.33;8.93;;;8.30;1.00;;;;;;5042465;28;20964;-64
2023/12/11 10:39:16;;;;;;;15.93;8.37;;;8.30;1.00;;;;;;5059861;28;20471;-63
2023/12/11 10:41:45;;;;;;;15.00;8.90;;;8.30;1.00;;;;;;5071683;28;20770;-64
2023/12/11 10:44:27;;;;;;;19.23;8.40;;;8.30;1.00;;;;;;5034773;28;20385;-63
2023/12/11 10:46:57;;;;;;;13.77;7.90;;;8.30;1.00;;;;;;5041836;28;20510;-64
2023/12/11 10:49:24;;;;;;;11.60;8.67;;;8.30;1.00;;;;;;5054665;28;20405;-67
2023/12/11 10:51:50;;;;;;;16.77;9.40;;;8.30;1.00;;;;;;5053598;28;20894;-63
2023/12/11 10:54:16;;;;;;;18.63;9.87;;;8.30;1.00;;;;;;5054453;28;20466;-65
2023/12/11 10:56:45;;;;;;;15.40;8.70;;;8.30;1.00;;;;;;5052443;28;20950;-63
2023/12/11 10:59:11;;;;;;;18.20;8.80;;;8.30;1.00;;;;;;5070031;28;20895;-63
2023/12/11 11:01:41;;;;;;;11.00;7.87;;;8.30;1.00;;;;;;5067153;28;20410;-64
2023/12/11 11:04:08;;;;;;;12.57;8.20;;;8.30;1.00;;;;;;5054753;28;20444;-64
2023/12/11 11:06:46;;;;;;;11.70;7.67;;;8.20;1.00;;;;;;5051148;28;20937;-69
2023/12/11 11:09:19;;;;;;;20.00;8.20;;;8.20;1.00;;;;;;5056244;28;20486;-63
2023/12/11 11:11:52;;;;;;;13.10;8.33;;;8.20;1.00;;;;;;5053642;28;20435;-69
2023/12/11 11:14:57;;;;;;;14.20;9.00;;;8.20;1.00;;;;;;5054317;28;20504;-64
2023/12/11 11:17:22;;;;;;;13.73;8.97;;;8.20;1.00;;;;;;4973264;28;20532;-63
2023/12/11 11:20:13;;;;;;;20.90;9.37;;;8.20;1.00;;;;;;4973967;28;20486;-64
2023/12/11 11:22:39;;;;;;;16.00;8.50;;;8.20;1.00;;;;;;5012618;28;20263;-65
2023/12/11 11:25:31;;;;;;;11.20;7.90;;;8.20;1.00;;;;;;5033014;28;20830;-64
2023/12/11 11:27:57;;;;;;;16.63;8.60;;;8.20;1.00;;;;;;5046210;28;20453;-66
2023/12/11 11:30:41;;;;;;;19.10;9.50;;;8.20;1.00;;;;;;5062937;28;20430;-63
2023/12/11 11:33:08;;;;;;;12.20;8.40;;;8.20;1.00;;;;;;5044620;28;20831;-65
2023/12/11 11:35:47;;;;;;;8.83;7.93;;;8.20;1.00;;;;;;5053143;28;20898;-64
2023/12/11 11:38:15;;;;;;;13.90;7.83;;;8.30;1.00;;;;;;5055108;28;20452;-64
2023/12/11 11:40:43;;;;;;;15.27;8.03;;;8.30;1.00;;;;;;5043384;28;20405;-64
2023/12/11 11:43:09;;;;;;;18.43;7.33;;;8.30;1.00;;;;;;5053963;28;20412;-65
2023/12/11 11:45:35;;;;;;;16.27;7.63;;;8.30;1.00;;;;;;5061814;28;20954;-65
2023/12/11 11:48:01;;;;;;;12.83;7.07;;;8.30;1.00;;;;;;5070147;28;20492;-64
2023/12/11 11:50:26;;;;;;;11.50;7.27;;;8.30;1.00;;;;;;5061198;28;20186;-64
2023/12/11 11:53:11;;;;;;;9.37;7.23;;;8.30;1.00;;;;;;5058346;28;20216;-64
2023/12/11 11:55:38;;;;;;;13.10;7.17;;;8.30;1.00;;;;;;5065585;28;20196;-64
2023/12/11 11:58:14;;;;;;;11.67;7.30;;;8.30;1.00;;;;;;5061219;28;20464;-65
2023/12/11 12:00:40;;;;;;;7.83;7.03;;;8.30;1.00;;;;;;5066959;28;20439;-66
2023/12/11 12:03:08;;;;;;;10.37;7.73;;;8.30;1.00;;;;;;5071377;28;20766;-66
2023/12/11 12:05:38;;;;;;;11.43;7.40;;;8.30;1.00;;;;;;5070170;28;20439;-66
2023/12/11 12:08:08;;;;;;;11.47;8.13;;;8.20;1.00;;;;;;5066434;28;20485;-65
2023/12/11 12:10:34;;;;;;;9.80;6.60;;;8.20;1.00;;;;;;5061215;28;21107;-65
2023/12/11 12:13:01;;;;;;;12.73;7.87;;;8.20;1.00;;;;;;5061972;28;20460;-65
2023/12/11 12:15:27;;;;;;;10.13;7.10;;;8.20;1.00;;;;;;5071156;28;20454;-64
2023/12/11 12:17:53;;;;;;;7.10;6.40;;;8.20;1.00;;;;;;5062390;28;20481;-65
2023/12/11 12:20:20;;;;;;;12.20;7.30;;;8.30;1.00;;;;;;5059056;28;20836;-64
2023/12/11 12:22:59;;;;;;;10.87;7.40;;;8.30;1.00;;;;;;5057224;28;20447;-66
2023/12/11 12:25:26;;;;;;;9.43;6.70;;;8.30;1.00;;;;;;5058268;28;20485;-64
2023/12/11 12:27:54;;;;;;;11.70;7.40;;;8.30;1.00;;;;;;5064142;28;20466;-65
2023/12/11 12:30:20;;;;;;;7.67;6.90;;;8.40;1.00;;;;;;5063361;28;20447;-65
2023/12/11 12:32:51;;;;;;;16.30;6.77;;;8.40;1.00;;;;;;5060306;28;20532;-66
2023/12/11 12:35:18;;;;;;;8.40;6.60;;;8.40;1.00;;;;;;5061949;28;20428;-63
2023/12/11 12:37:45;;;;;;;8.43;6.00;;;8.40;1.00;;;;;;5058951;28;20537;-63
2023/12/11 12:40:12;;;;;;;12.83;6.63;;;8.40;1.00;;;;;;5047482;28;20530;-65
2023/12/11 12:42:38;;;;;;;6.93;5.87;;;8.40;1.00;;;;;;5039857;28;21021;-65
2023/12/11 12:45:05;;;;;;;7.73;6.10;;;8.40;1.00;;;;;;5051097;28;20499;-68
2023/12/11 12:47:32;;;;;;;10.10;7.17;;;8.40;1.00;;;;;;5046461;28;20426;-65
2023/12/11 12:49:59;;;;;;;10.00;7.60;;;8.50;1.00;;;;;;5066891;28;20775;-65
2023/12/11 12:52:25;;;;;;;13.73;8.63;;;8.50;1.00;;;;;;5070133;28;20592;-72
2023/12/11 12:54:53;;;;;;;8.87;6.73;;;8.50;1.00;;;;;;5045281;28;20456;-64
2023/12/11 12:57:19;;;;;;;14.10;7.33;;;8.50;1.00;;;;;;5068030;28;20472;-68